createdAt,value
2022-11-25T00:01:23.748Z,3.22
2022-11-25T00:03:51.819Z,3.85
2022-11-25T00:06:23.243Z,3.60
2022-11-25T00:08:56.048Z,4.30
2022-11-25T00:11:23.593Z,3.63
2022-11-25T00:13:50.793Z,3.88
2022-11-25T00:16:19.969Z,3.17
2022-11-25T00:18:49.873Z,2.45
2022-11-25T00:21:19.445Z,2.97
2022-11-25T00:23:58.698Z,3.08
2022-11-25T00:26:26.839Z,3.80
2022-11-25T00:28:54.898Z,2.58
2022-11-25T00:31:24.732Z,2.13
2022-11-25T00:33:52.262Z,2.55
2022-11-25T00:36:34.168Z,3.45
2022-11-25T00:39:11.058Z,2.88
2022-11-25T00:41:56.981Z,2.92
2022-11-25T00:44:36.646Z,4.53
2022-11-25T00:47:12.070Z,3.55
2022-11-25T00:49:41.321Z,3.55
2022-11-25T00:52:09.567Z,3.65
2022-11-25T00:54:36.744Z,5.70
2022-11-25T00:57:04.335Z,2.20
2022-11-25T00:59:31.612Z,5.03
2022-11-25T01:01:59.747Z,2.78
2022-11-25T01:04:27.021Z,3.40
2022-11-25T01:06:58.284Z,2.45
2022-11-25T01:09:25.843Z,2.60
2022-11-25T01:11:53.359Z,3.00
2022-11-25T01:14:22.002Z,2.60
2022-11-25T01:16:49.617Z,2.78
2022-11-25T01:19:17.797Z,3.65
2022-11-25T01:21:44.819Z,2.72
2022-11-25T01:24:14.495Z,2.80
2022-11-25T01:26:42.532Z,2.45
2022-11-25T01:29:15.434Z,2.67
2022-11-25T01:31:42.933Z,2.85
2022-11-25T01:34:23.081Z,2.60
2022-11-25T01:36:50.803Z,3.20
2022-11-25T01:39:26.882Z,3.15
2022-11-25T01:41:58.165Z,3.00
2022-11-25T01:44:29.317Z,4.68
2022-11-25T01:46:59.750Z,3.20
2022-11-25T01:50:02.857Z,4.78
2022-11-25T01:52:44.226Z,7.63
2022-11-25T01:57:44.394Z,2.63
2022-11-25T02:00:12.348Z,2.70
2022-11-25T02:02:46.715Z,2.92
2022-11-25T02:05:17.939Z,4.30
2022-11-25T02:07:48.665Z,4.53
2022-11-25T02:10:24.228Z,2.55
2022-11-25T02:12:52.644Z,2.67
2022-11-25T02:15:20.667Z,5.68
2022-11-25T02:17:48.191Z,2.33
2022-11-25T02:20:17.864Z,3.83
2022-11-25T02:23:05.752Z,4.05
2022-11-25T02:25:35.921Z,4.15
2022-11-25T02:28:17.419Z,5.22
2022-11-25T02:30:45.601Z,3.47
2022-11-25T02:33:13.221Z,3.78
2022-11-25T02:35:46.668Z,2.92
2022-11-25T02:38:19.235Z,2.70
2022-11-25T02:40:54.910Z,3.47
2022-11-25T02:43:22.689Z,5.78
2022-11-25T02:46:02.398Z,3.33
2022-11-25T02:49:00.973Z,3.13
2022-11-25T02:51:22.971Z,3.72
2022-11-25T02:53:50.490Z,5.53
2022-11-25T02:56:23.793Z,3.75
2022-11-25T02:58:50.801Z,4.88
2022-11-25T03:01:18.318Z,3.40
2022-11-25T03:03:45.479Z,4.78
2022-11-25T03:06:14.760Z,3.78
2022-11-25T03:08:45.009Z,4.68
2022-11-25T03:11:13.310Z,11.00
2022-11-25T03:13:41.083Z,4.25
2022-11-25T03:16:09.184Z,4.55
2022-11-25T03:18:36.278Z,3.75
2022-11-25T03:21:03.459Z,5.05
2022-11-25T03:23:30.544Z,4.20
2022-11-25T03:25:57.587Z,3.88
2022-11-25T03:28:24.670Z,3.65
2022-11-25T03:30:51.770Z,4.00
2022-11-25T03:33:18.661Z,4.05
2022-11-25T03:35:48.451Z,4.35
2022-11-25T03:38:15.275Z,5.88
2022-11-25T03:40:42.455Z,3.83
2022-11-25T03:43:09.787Z,4.05
2022-11-25T03:45:37.053Z,4.38
2022-11-25T03:48:07.169Z,7.97
2022-11-25T03:50:34.323Z,5.15
2022-11-25T03:53:01.840Z,4.32
2022-11-25T03:55:29.129Z,4.28
2022-11-25T03:57:56.172Z,4.00
2022-11-25T04:00:24.557Z,5.65
2022-11-25T04:02:58.722Z,4.28
2022-11-25T04:05:25.704Z,4.20
2022-11-25T04:07:57.886Z,4.80
2022-11-25T04:10:27.186Z,4.97
2022-11-25T04:12:55.349Z,4.28
2022-11-25T04:15:28.534Z,4.65
2022-11-25T04:17:57.841Z,4.72
2022-11-25T04:20:25.205Z,4.40
2022-11-25T04:23:12.773Z,4.43
2022-11-25T04:25:45.317Z,6.03
2022-11-25T04:28:18.458Z,5.55
2022-11-25T04:30:45.347Z,4.35
2022-11-25T04:33:12.991Z,5.25
2022-11-25T04:35:39.997Z,5.75
2022-11-25T04:38:08.596Z,6.03
2022-11-25T04:40:36.863Z,6.57
2022-11-25T04:43:15.927Z,5.40
2022-11-25T04:46:12.984Z,5.60
2022-11-25T04:48:39.156Z,7.05
2022-11-25T04:51:06.340Z,7.35
2022-11-25T04:53:33.610Z,9.48
2022-11-25T04:56:00.567Z,8.07
2022-11-25T04:58:49.238Z,7.38
2022-11-25T05:01:16.431Z,5.82
2022-11-25T05:03:54.485Z,5.28
2022-11-25T05:06:25.922Z,7.10
2022-11-25T05:08:53.462Z,6.00
2022-11-25T05:11:22.079Z,6.97
2022-11-25T05:13:50.315Z,6.68
2022-11-25T05:16:18.839Z,5.57
2022-11-25T05:18:46.176Z,6.57
2022-11-25T05:21:13.410Z,8.27
2022-11-25T05:23:42.449Z,9.05
2022-11-25T05:26:10.186Z,8.20
2022-11-25T05:28:43.663Z,5.25
2022-11-25T05:31:12.025Z,11.55
2022-11-25T05:33:39.182Z,7.70
2022-11-25T05:36:08.550Z,5.40
2022-11-25T05:38:46.709Z,5.40
2022-11-25T05:41:19.647Z,5.82
2022-11-25T05:43:47.876Z,10.30
2022-11-25T05:46:15.670Z,9.80
2022-11-25T05:48:47.759Z,5.07
2022-11-25T05:51:15.133Z,5.10
2022-11-25T05:53:42.157Z,5.75
2022-11-25T05:56:10.531Z,6.35
2022-11-25T05:59:07.482Z,8.40
2022-11-25T06:01:45.946Z,4.78
2022-11-25T06:04:14.591Z,5.30
2022-11-25T06:06:42.129Z,4.88
2022-11-25T06:09:09.132Z,9.43
2022-11-25T06:11:39.147Z,8.93
2022-11-25T06:14:06.349Z,6.15
2022-11-25T06:16:33.827Z,7.30
2022-11-25T06:19:10.447Z,7.40
2022-11-25T06:21:37.778Z,4.72
2022-11-25T06:24:05.388Z,5.97
2022-11-25T06:26:32.734Z,6.55
2022-11-25T06:29:03.840Z,8.75
2022-11-25T06:31:31.152Z,5.93
2022-11-25T06:34:16.000Z,4.75
2022-11-25T06:36:43.392Z,5.53
2022-11-25T06:39:10.478Z,12.60
2022-11-25T06:41:37.792Z,10.35
2022-11-25T06:44:08.630Z,11.80
2022-11-25T06:46:35.942Z,12.10
2022-11-25T06:49:03.265Z,8.55
2022-11-25T06:51:31.059Z,7.72
2022-11-25T06:54:00.373Z,8.07
2022-11-25T06:56:28.743Z,7.35
2022-11-25T06:58:56.301Z,5.68
2022-11-25T07:01:29.151Z,6.38
2022-11-25T07:04:00.772Z,8.80
2022-11-25T07:06:28.025Z,6.45
2022-11-25T07:08:58.121Z,5.55
2022-11-25T07:11:26.736Z,5.15
2022-11-25T07:14:00.265Z,7.10
2022-11-25T07:16:31.091Z,6.25
2022-11-25T07:19:02.194Z,6.32
2022-11-25T07:21:30.768Z,4.80
2022-11-25T07:24:00.561Z,8.15
2022-11-25T07:26:30.007Z,8.13
2022-11-25T07:29:02.736Z,6.10
2022-11-25T07:31:33.883Z,7.47
2022-11-25T07:34:06.195Z,5.47
2022-11-25T07:36:35.100Z,9.70
2022-11-25T07:39:05.805Z,11.25
2022-11-25T07:41:35.925Z,6.25
2022-11-25T07:44:05.891Z,5.85
2022-11-25T07:46:46.236Z,9.00
2022-11-25T07:49:16.403Z,6.43
2022-11-25T07:51:51.233Z,8.05
2022-11-25T07:54:18.292Z,7.20
2022-11-25T07:56:46.020Z,5.30
2022-11-25T07:59:16.300Z,10.52
2022-11-25T08:01:44.513Z,4.88
2022-11-25T08:04:18.282Z,7.32
2022-11-25T08:06:48.901Z,7.10
2022-11-25T08:09:20.985Z,8.18
2022-11-25T08:11:49.658Z,5.13
2022-11-25T08:14:18.104Z,5.72
2022-11-25T08:16:45.417Z,5.25
2022-11-25T08:19:15.619Z,6.00
2022-11-25T08:21:42.973Z,6.28
2022-11-25T08:24:19.353Z,7.13
2022-11-25T08:26:46.972Z,7.60
2022-11-25T08:29:16.109Z,9.35
2022-11-25T08:31:43.695Z,6.13
2022-11-25T08:34:22.075Z,10.73
2022-11-25T08:36:52.303Z,7.72
2022-11-25T08:39:51.908Z,8.50
2022-11-25T08:42:08.681Z,13.70
2022-11-25T08:44:36.568Z,6.13
2022-11-25T08:47:04.085Z,5.30
2022-11-25T08:49:33.811Z,6.57
2022-11-25T08:52:10.703Z,5.57
2022-11-25T08:54:38.389Z,6.38
2022-11-25T08:57:09.132Z,5.88
2022-11-25T08:59:36.952Z,11.00
2022-11-25T09:02:04.662Z,11.60
2022-11-25T09:04:38.141Z,25.73
2022-11-25T09:10:47.347Z,10.32
2022-11-25T09:13:15.979Z,7.55
2022-11-25T09:15:43.547Z,4.40
2022-11-25T09:18:11.622Z,7.88
2022-11-25T09:20:43.920Z,5.43
2022-11-25T09:26:30.447Z,6.57
2022-11-25T09:28:58.136Z,6.05
2022-11-25T09:31:25.158Z,6.57
2022-11-25T09:33:52.891Z,5.22
2022-11-25T09:36:21.074Z,6.78
2022-11-25T09:38:49.024Z,8.13
2022-11-25T09:42:05.561Z,6.57
2022-11-25T09:45:13.014Z,9.43
2022-11-25T09:47:57.564Z,5.20
2022-11-25T09:50:48.971Z,6.97
2022-11-25T09:53:31.854Z,11.20
2022-11-25T09:56:28.264Z,9.82
2022-11-25T09:59:10.403Z,8.82
2022-11-25T10:02:04.609Z,7.35
2022-11-25T10:04:42.769Z,12.15
2022-11-25T10:07:20.104Z,19.38
2022-11-25T10:09:48.020Z,25.88
2022-11-25T10:12:31.104Z,24.85
2022-11-25T10:15:07.348Z,10.18
2022-11-25T10:17:43.364Z,10.00
2022-11-25T10:20:20.519Z,8.77
2022-11-25T10:22:55.345Z,6.85
2022-11-25T10:25:30.552Z,10.25
2022-11-25T10:28:03.448Z,10.45
2022-11-25T10:30:51.144Z,8.30
2022-11-25T10:33:36.421Z,11.98
2022-11-25T10:36:18.553Z,9.63
2022-11-25T10:38:56.355Z,8.82
2022-11-25T10:41:34.084Z,13.45
2022-11-25T10:48:50.851Z,13.40
2022-11-25T10:51:51.156Z,12.35
2022-11-25T10:54:27.572Z,11.88
2022-11-25T10:57:03.234Z,12.85
2022-11-25T10:59:38.885Z,12.63
2022-11-25T11:02:19.554Z,12.18
2022-11-25T11:04:56.590Z,10.97
2022-11-25T11:07:27.208Z,21.17
2022-11-25T11:09:54.833Z,10.70
2022-11-25T11:12:25.960Z,11.15
2022-11-25T11:14:55.110Z,17.23
2022-11-25T11:17:37.180Z,10.07
2022-11-25T11:20:07.609Z,20.30
2022-11-25T11:22:36.530Z,22.73
2022-11-25T11:25:21.631Z,23.50
2022-11-25T11:27:49.502Z,32.63
2022-11-25T11:30:23.649Z,31.38
2022-11-25T11:33:00.600Z,27.02
2022-11-25T11:35:53.523Z,15.40
2022-11-25T11:38:31.642Z,19.45
2022-11-25T11:41:29.309Z,37.03
2022-11-25T11:43:59.305Z,22.85
2022-11-25T11:47:01.904Z,15.93
2022-11-25T11:49:54.972Z,13.57
2022-11-25T11:52:52.504Z,16.95
2022-11-25T11:55:28.942Z,14.40
2022-11-25T11:58:39.429Z,11.48
2022-11-25T12:01:31.504Z,16.88
2022-11-25T12:04:15.265Z,13.82
2022-11-25T12:06:46.590Z,15.47
2022-11-25T12:09:20.606Z,14.43
2022-11-25T12:11:54.514Z,15.98
2022-11-25T12:14:43.055Z,19.35
2022-11-25T12:17:27.234Z,16.05
2022-11-25T12:20:22.489Z,14.38
2022-11-25T12:23:20.578Z,12.82
2022-11-25T12:25:52.428Z,15.27
2022-11-25T12:28:29.609Z,18.23
2022-11-25T12:31:06.449Z,13.48
2022-11-25T12:33:48.902Z,12.90
2022-11-25T12:36:21.896Z,13.43
2022-11-25T12:39:12.198Z,13.43
2022-11-25T12:42:05.199Z,14.13
2022-11-25T12:44:44.281Z,12.95
2022-11-25T12:47:12.314Z,12.77
2022-11-25T12:49:44.290Z,12.18
2022-11-25T12:52:33.531Z,10.93
2022-11-25T12:55:19.022Z,18.00
2022-11-25T12:58:10.753Z,38.22
2022-11-25T13:01:22.556Z,32.15
2022-11-25T13:04:10.203Z,19.48
2022-11-25T13:07:00.052Z,22.63
2022-11-25T13:09:48.138Z,30.00
2022-11-25T13:12:18.950Z,21.67
2022-11-25T13:17:27.402Z,12.80
2022-11-25T13:20:30.606Z,15.70
2022-11-25T13:23:19.282Z,16.40
2022-11-25T13:25:51.129Z,16.88
2022-11-25T13:28:35.235Z,15.23
2022-11-25T13:31:16.699Z,13.00
2022-11-25T13:33:57.241Z,12.65
2022-11-25T13:36:43.112Z,14.32
2022-11-25T13:39:18.246Z,13.15
2022-11-25T13:42:34.645Z,21.50
2022-11-25T13:45:01.802Z,19.17
2022-11-25T13:47:40.937Z,21.08
2022-11-25T13:50:26.348Z,20.40
2022-11-25T13:53:03.802Z,18.85
2022-11-25T13:55:37.438Z,18.75
2022-11-25T13:58:10.390Z,21.67
2022-11-25T14:00:37.488Z,36.13
2022-11-25T14:03:20.179Z,24.38
2022-11-25T14:05:47.192Z,20.83
2022-11-25T14:08:39.341Z,19.52
2022-11-25T14:11:10.060Z,16.83
2022-11-25T14:14:07.523Z,29.63
2022-11-25T14:17:03.723Z,23.13
2022-11-25T14:19:55.153Z,36.50
2022-11-25T14:22:50.692Z,43.90
2022-11-25T14:25:31.111Z,37.83
2022-11-25T14:28:30.581Z,45.70
2022-11-25T14:31:04.917Z,47.45
2022-11-25T14:33:48.777Z,45.45
2022-11-25T14:36:28.093Z,39.65
2022-11-25T14:39:10.605Z,34.92
2022-11-25T14:41:40.624Z,34.80
2022-11-25T14:44:16.055Z,29.83
2022-11-25T14:46:53.254Z,44.10
2022-11-25T14:49:46.633Z,37.70
2022-11-25T14:52:30.370Z,51.33
2022-11-25T14:54:58.630Z,43.03
2022-11-25T14:57:29.722Z,43.95
2022-11-25T15:00:03.621Z,32.67
2022-11-25T15:02:34.582Z,27.35
2022-11-25T15:05:23.880Z,27.25
2022-11-25T15:08:00.843Z,29.00
2022-11-25T15:10:42.306Z,27.77
2022-11-25T15:15:40.442Z,22.77
2022-11-25T15:18:10.055Z,20.58
2022-11-25T15:20:38.880Z,21.52
2022-11-25T15:23:05.860Z,17.73
2022-11-25T15:25:32.738Z,17.48
2022-11-25T15:27:59.912Z,21.15
2022-11-25T15:30:32.168Z,27.65
2022-11-25T15:33:10.189Z,24.48
2022-11-25T15:35:37.712Z,19.15
2022-11-25T15:38:37.982Z,18.35
2022-11-25T15:41:06.760Z,22.05
2022-11-25T15:43:37.537Z,21.40
2022-11-25T15:46:05.969Z,16.63
2022-11-25T15:48:46.359Z,20.10
2022-11-25T15:51:34.921Z,20.15
2022-11-25T15:54:28.559Z,31.90
2022-11-25T15:57:06.244Z,28.67
2022-11-25T15:59:56.216Z,23.98
2022-11-25T16:02:50.437Z,20.45
2022-11-25T16:05:26.596Z,22.15
2022-11-25T16:07:53.845Z,25.50
2022-11-25T16:10:34.396Z,31.13
2022-11-25T16:13:23.486Z,31.98
2022-11-25T16:16:02.295Z,32.45
2022-11-25T16:18:56.469Z,39.53
2022-11-25T16:21:30.581Z,26.02
2022-11-25T16:24:10.333Z,36.00
2022-11-25T16:26:51.227Z,29.10
2022-11-25T16:29:41.910Z,28.52
2022-11-25T16:32:29.795Z,22.30
2022-11-25T16:35:11.561Z,21.55
2022-11-25T16:37:38.626Z,21.77
2022-11-25T16:40:06.324Z,19.77
2022-11-25T16:42:33.934Z,20.38
2022-11-25T16:45:01.639Z,15.05
2022-11-25T16:47:28.735Z,23.20
2022-11-25T16:49:55.771Z,33.78
2022-11-25T16:52:22.905Z,45.42
2022-11-25T16:54:49.925Z,41.97
2022-11-25T16:57:22.509Z,40.58
2022-11-25T16:59:55.765Z,39.15
2022-11-25T17:02:24.473Z,37.20
2022-11-25T17:04:51.653Z,29.58
2022-11-25T17:07:36.070Z,28.50
2022-11-25T17:10:04.291Z,28.27
2022-11-25T17:12:34.541Z,34.92
2022-11-25T17:15:04.747Z,31.42
2022-11-25T17:17:32.488Z,40.97
2022-11-25T17:19:59.520Z,52.70
2022-11-25T17:22:28.693Z,45.92
2022-11-25T17:24:58.640Z,44.60
2022-11-25T17:27:29.654Z,41.65
2022-11-25T17:29:58.611Z,46.25
2022-11-25T17:32:26.782Z,46.45
2022-11-25T17:34:54.649Z,48.97
2022-11-25T17:37:24.756Z,35.28
2022-11-25T17:39:53.556Z,30.08
2022-11-25T17:42:31.663Z,31.77
2022-11-25T17:44:59.862Z,19.75
2022-11-25T17:47:27.018Z,36.70
2022-11-25T17:49:54.688Z,31.67
2022-11-25T17:52:21.883Z,24.25
2022-11-25T17:54:48.882Z,24.30
2022-11-25T17:57:19.876Z,30.90
2022-11-25T17:59:47.282Z,31.10
2022-11-25T18:02:19.854Z,28.98
2022-11-25T18:04:47.070Z,28.27
2022-11-25T18:07:14.656Z,38.25
2022-11-25T18:10:01.147Z,55.00
2022-11-25T18:12:34.041Z,44.33
2022-11-25T18:15:08.679Z,41.45
2022-11-25T18:17:37.886Z,50.97
2022-11-25T18:20:25.304Z,51.65
2022-11-25T18:22:53.277Z,53.55
2022-11-25T18:25:24.348Z,49.95
2022-11-25T18:27:56.652Z,47.42
2022-11-25T18:30:28.295Z,50.78
2022-11-25T18:32:57.515Z,44.65
2022-11-25T18:35:36.353Z,41.50
2022-11-25T18:38:05.091Z,43.67
2022-11-25T18:43:49.015Z,52.25
2022-11-25T18:46:16.229Z,51.03
2022-11-25T18:48:43.455Z,53.38
2022-11-25T18:51:13.217Z,54.50
2022-11-25T18:53:40.841Z,48.13
2022-11-25T18:56:17.480Z,50.08
2022-11-25T18:58:50.830Z,57.05
2022-11-25T19:01:22.239Z,52.08
2022-11-25T19:06:18.250Z,52.42
2022-11-25T19:08:46.354Z,59.30
2022-11-25T19:11:21.963Z,47.40
2022-11-25T19:13:53.455Z,47.13
2022-11-25T19:16:22.821Z,44.03
2022-11-25T19:18:53.179Z,43.50
2022-11-25T19:21:21.271Z,33.13
2022-11-25T19:23:58.890Z,37.67
2022-11-25T19:26:42.533Z,38.83
2022-11-25T19:29:18.619Z,36.53
2022-11-25T19:31:49.781Z,33.22
2022-11-25T19:34:31.996Z,32.00
2022-11-25T19:37:13.596Z,28.60
2022-11-25T19:39:57.471Z,30.10
2022-11-25T19:42:34.975Z,20.58
2022-11-25T19:45:13.199Z,28.38
2022-11-25T19:47:40.924Z,25.98
2022-11-25T19:50:08.470Z,27.30
2022-11-25T19:52:43.823Z,23.70
2022-11-25T19:55:34.194Z,31.73
2022-11-25T19:58:07.073Z,27.15
2022-11-25T20:00:37.087Z,29.23
2022-11-25T20:03:05.069Z,27.67
2022-11-25T20:05:38.128Z,23.27
2022-11-25T20:08:05.734Z,22.92
2022-11-25T20:10:33.666Z,20.48
2022-11-25T20:13:02.057Z,24.17
2022-11-25T20:15:29.015Z,25.98
2022-11-25T20:18:00.179Z,22.60
2022-11-25T20:23:04.148Z,22.63
2022-11-25T20:25:31.377Z,35.15
2022-11-25T20:27:58.943Z,33.90
2022-11-25T20:30:29.022Z,33.67
2022-11-25T20:32:56.137Z,34.25
2022-11-25T20:35:25.995Z,32.00
2022-11-25T20:37:58.345Z,28.20
2022-11-25T20:40:33.472Z,40.67
2022-11-25T20:43:00.591Z,42.00
2022-11-25T20:45:27.696Z,43.47
2022-11-25T20:47:54.702Z,35.58
2022-11-25T20:50:22.163Z,36.28
2022-11-25T20:52:50.653Z,33.80
2022-11-25T20:55:24.468Z,33.40
2022-11-25T20:57:52.739Z,24.13
2022-11-25T21:00:23.769Z,25.15
2022-11-25T21:02:51.585Z,25.33
2022-11-25T21:05:19.489Z,22.38
2022-11-25T21:07:49.210Z,25.35
2022-11-25T21:10:41.903Z,25.10
2022-11-25T21:13:38.019Z,31.02
2022-11-25T21:16:05.327Z,27.17
2022-11-25T21:18:44.695Z,31.17
2022-11-25T21:21:19.930Z,30.45
2022-11-25T21:23:50.096Z,25.15
2022-11-25T21:26:21.940Z,27.70
2022-11-25T21:28:54.454Z,29.35
2022-11-25T21:31:28.112Z,29.13
2022-11-25T21:33:59.318Z,32.05
2022-11-25T21:36:31.991Z,38.17
2022-11-25T21:39:08.809Z,23.42
2022-11-25T21:41:36.777Z,34.90
2022-11-25T21:44:06.948Z,31.17
2022-11-25T21:46:39.700Z,38.35
2022-11-25T21:49:14.159Z,38.80
2022-11-25T21:51:41.725Z,35.85
2022-11-25T21:54:18.420Z,36.53
2022-11-25T21:56:48.940Z,36.58
2022-11-25T21:59:20.157Z,30.33
2022-11-25T22:01:48.477Z,33.15
2022-11-25T22:04:19.676Z,38.78
2022-11-25T22:06:47.966Z,37.22
2022-11-25T22:09:16.608Z,41.03
2022-11-25T22:11:48.394Z,25.40
2022-11-25T22:14:27.803Z,23.42
2022-11-25T22:16:57.159Z,25.05
2022-11-25T22:19:28.932Z,24.73
2022-11-25T22:21:56.564Z,25.02
2022-11-25T22:24:24.201Z,22.10
2022-11-25T22:26:58.057Z,18.85
2022-11-25T22:29:34.945Z,20.63
2022-11-25T22:32:08.201Z,19.00
2022-11-25T22:34:39.666Z,14.20
2022-11-25T22:37:27.698Z,21.92
2022-11-25T22:39:56.052Z,20.35
2022-11-25T22:42:30.890Z,27.00
2022-11-25T22:45:00.131Z,20.10
2022-11-25T22:47:41.274Z,21.23
2022-11-25T22:50:18.471Z,22.52
2022-11-25T22:52:45.935Z,23.25
2022-11-25T22:55:20.817Z,21.48
2022-11-25T22:57:49.200Z,18.85
2022-11-25T23:00:24.457Z,16.58
2022-11-25T23:02:54.529Z,21.85
2022-11-25T23:05:32.477Z,16.65
2022-11-25T23:08:01.731Z,18.77
2022-11-25T23:10:32.606Z,17.77
2022-11-25T23:12:59.723Z,10.93
2022-11-25T23:15:27.258Z,13.18
2022-11-25T23:17:59.893Z,13.00
2022-11-25T23:20:32.607Z,14.93
2022-11-25T23:23:18.144Z,14.43
2022-11-25T23:25:45.826Z,12.57
2022-11-25T23:28:13.678Z,13.80
2022-11-25T23:30:52.704Z,13.65
2022-11-25T23:33:40.753Z,15.45
2022-11-25T23:36:09.973Z,19.88
2022-11-25T23:38:44.920Z,20.55
2022-11-25T23:41:33.129Z,17.33
2022-11-25T23:44:15.826Z,21.30
2022-11-25T23:46:44.535Z,23.10
2022-11-25T23:49:23.251Z,20.40
2022-11-25T23:51:51.623Z,16.85
2022-11-25T23:54:21.896Z,21.13
2022-11-25T23:56:51.674Z,30.73
2022-11-25T23:59:18.586Z,31.27
